Time;durP1;ratioP1;P1;durP2;ratioP2;P2;SDS_P1;SDS_P2;PMS_P1;PMS_P2;Temp;Humidity;BMP_temperature;BMP_pressure;BME280_temperature;BME280_humidity;BME280_pressure;Samples;Min_cycle;Max_cycle;Signal;HPM_P1;HPM_P2
2022/06/29 00:00:19;;;;;;;1.45;0.98;;;23.80;52.10;;;;;;4903454;29;20067;-79
2022/06/29 00:02:46;;;;;;;1.45;1.00;;;23.80;52.10;;;;;;4903702;29;20071;-78
2022/06/29 00:05:13;;;;;;;1.55;1.00;;;23.70;52.10;;;;;;4903102;29;20487;-79
2022/06/29 00:07:41;;;;;;;0.98;0.85;;;23.70;52.10;;;;;;4887537;29;20036;-79
2022/06/29 00:10:08;;;;;;;1.10;0.90;;;23.70;52.20;;;;;;4903340;29;20032;-79
2022/06/29 00:12:34;;;;;;;1.10;1.00;;;23.60;52.10;;;;;;4887148;29;20122;-78
2022/06/29 00:15:03;;;;;;;1.10;0.82;;;23.60;52.20;;;;;;4902379;29;20433;-78
2022/06/29 00:17:30;;;;;;;1.45;0.90;;;23.60;52.20;;;;;;4887252;29;20127;-79
2022/06/29 00:19:58;;;;;;;1.00;0.90;;;23.60;52.20;;;;;;4887113;29;20489;-78
2022/06/29 00:22:25;;;;;;;1.15;0.90;;;23.60;52.30;;;;;;4887324;29;20036;-79
2022/06/29 00:24:51;;;;;;;1.20;1.10;;;23.50;52.20;;;;;;4887102;29;20032;-79
2022/06/29 00:27:17;;;;;;;1.05;0.90;;;23.50;52.30;;;;;;4902419;29;20035;-78
2022/06/29 00:29:42;;;;;;;1.88;1.00;;;23.50;52.90;;;;;;4886704;29;20445;-78
2022/06/29 00:32:08;;;;;;;0.90;0.90;;;23.50;52.30;;;;;;4886655;29;20075;-78
2022/06/29 00:34:35;;;;;;;1.15;0.90;;;23.50;52.40;;;;;;4902505;29;20040;-77
2022/06/29 00:37:00;;;;;;;1.02;0.90;;;23.40;52.30;;;;;;4919125;29;20095;-79
2022/06/29 00:39:26;;;;;;;0.80;0.80;;;23.40;52.30;;;;;;4902812;29;20466;-79
2022/06/29 00:41:52;;;;;;;1.75;0.98;;;23.40;52.40;;;;;;4871204;29;20039;-79
2022/06/29 00:44:19;;;;;;;1.40;0.90;;;23.40;52.40;;;;;;4871783;29;20494;-79
2022/06/29 00:46:51;;;;;;;0.93;0.80;;;23.40;52.40;;;;;;4886737;29;20362;-79
2022/06/29 00:49:19;;;;;;;1.02;0.90;;;23.30;52.40;;;;;;4902155;29;20529;-79
2022/06/29 00:51:47;;;;;;;1.77;0.93;;;23.30;52.40;;;;;;4887201;29;20032;-78
2022/06/29 00:54:19;;;;;;;0.73;0.73;;;23.30;52.40;;;;;;4886426;29;20028;-78
2022/06/29 00:56:45;;;;;;;1.08;0.98;;;23.20;52.40;;;;;;4917661;29;20131;-79
2022/06/29 00:59:19;;;;;;;1.00;0.90;;;23.20;52.50;;;;;;4900887;29;20461;-79
2022/06/29 01:01:45;;;;;;;1.80;0.95;;;23.20;52.50;;;;;;4919166;29;20032;-79
2022/06/29 01:04:11;;;;;;;1.13;0.80;;;23.20;52.50;;;;;;4918308;29;20037;-79
2022/06/29 01:06:37;;;;;;;1.83;1.27;;;23.20;52.60;;;;;;4886428;29;20028;-79
2022/06/29 01:09:04;;;;;;;2.55;1.00;;;23.20;52.60;;;;;;4901621;29;20351;-78
2022/06/29 01:11:31;;;;;;;1.02;0.90;;;23.10;52.60;;;;;;4885963;29;20123;-78
2022/06/29 01:13:58;;;;;;;1.38;1.08;;;23.10;52.60;;;;;;4917398;29;20143;-79
2022/06/29 01:16:24;;;;;;;1.20;0.93;;;23.10;52.60;;;;;;4886190;29;20123;-79
2022/06/29 01:18:50;;;;;;;0.95;0.88;;;23.00;52.60;;;;;;4917339;29;20055;-79
2022/06/29 01:21:19;;;;;;;1.08;0.98;;;23.00;52.60;;;;;;4901915;29;20059;-79
2022/06/29 01:23:45;;;;;;;1.00;0.90;;;23.00;52.70;;;;;;4919436;29;20259;-78
2022/06/29 01:26:12;;;;;;;1.40;1.20;;;23.00;52.70;;;;;;4901979;29;20039;-79
2022/06/29 01:28:46;;;;;;;1.58;1.08;;;23.00;52.70;;;;;;4917951;29;20047;-80
2022/06/29 01:31:14;;;;;;;1.33;1.00;;;22.90;52.70;;;;;;4887350;29;20052;-78
2022/06/29 01:33:40;;;;;;;1.40;1.00;;;23.00;52.80;;;;;;4902350;29;20171;-79
2022/06/29 01:36:06;;;;;;;1.52;1.13;;;22.90;52.80;;;;;;4901944;29;20110;-78
2022/06/29 01:38:32;;;;;;;1.15;0.95;;;22.90;52.80;;;;;;4901481;29;20032;-79
2022/06/29 01:40:57;;;;;;;1.20;1.10;;;22.90;52.80;;;;;;4916750;29;20055;-79
2022/06/29 01:43:23;;;;;;;1.30;1.10;;;22.80;52.80;;;;;;4901671;29;20020;-77
2022/06/29 01:45:49;;;;;;;1.42;1.05;;;22.80;52.80;;;;;;4901681;29;20364;-79
2022/06/29 01:48:15;;;;;;;1.05;0.98;;;22.80;52.80;;;;;;4901900;29;20084;-78
2022/06/29 01:50:40;;;;;;;1.10;1.00;;;22.80;52.90;;;;;;4871040;29;20042;-80
2022/06/29 01:53:06;;;;;;;1.80;1.30;;;22.80;52.90;;;;;;4885364;29;20054;-78
2022/06/29 01:55:32;;;;;;;1.55;1.10;;;22.70;52.90;;;;;;4900660;29;20031;-79
2022/06/29 01:57:58;;;;;;;1.15;0.88;;;22.70;52.90;;;;;;4869492;29;20033;-78
2022/06/29 02:00:24;;;;;;;1.30;1.20;;;22.70;53.00;;;;;;4869549;29;20028;-78
2022/06/29 02:02:49;;;;;;;1.10;1.02;;;22.60;52.90;;;;;;4916825;29;20086;-78
2022/06/29 02:05:15;;;;;;;1.60;1.08;;;22.70;53.00;;;;;;4869791;29;20068;-78
2022/06/29 02:07:41;;;;;;;1.30;1.02;;;22.60;53.00;;;;;;4885602;29;20036;-78
2022/06/29 02:10:07;;;;;;;1.10;1.00;;;22.60;53.00;;;;;;4869481;29;20521;-77
2022/06/29 02:12:33;;;;;;;1.33;1.10;;;22.60;53.10;;;;;;4885676;29;20510;-78
2022/06/29 02:14:59;;;;;;;1.63;1.10;;;22.50;53.00;;;;;;4869615;29;20028;-78
2022/06/29 02:17:25;;;;;;;2.13;1.20;;;22.50;53.10;;;;;;4869820;29;20473;-79
2022/06/29 02:19:50;;;;;;;1.95;1.20;;;22.50;53.10;;;;;;4884923;29;20048;-78
2022/06/29 02:22:16;;;;;;;1.65;1.10;;;22.50;53.10;;;;;;4868969;29;20035;-79
2022/06/29 02:24:42;;;;;;;1.48;1.27;;;22.50;53.20;;;;;;4884883;29;20056;-79
2022/06/29 02:27:08;;;;;;;1.17;1.08;;;22.50;53.20;;;;;;4869351;29;20036;-78
2022/06/29 02:29:34;;;;;;;1.30;1.10;;;22.40;53.20;;;;;;4885580;29;20035;-79
2022/06/29 02:34:44;;;;;;;0.90;0.90;;;22.40;53.20;;;;;;4887690;29;20068;-79
2022/06/29 02:37:14;;;;;;;1.25;1.08;;;22.40;53.20;;;;;;4900326;29;20056;-78
2022/06/29 02:39:42;;;;;;;1.55;1.20;;;22.40;53.30;;;;;;4869609;29;20051;-79
2022/06/29 02:42:10;;;;;;;1.08;0.98;;;22.40;53.40;;;;;;4916820;29;20034;-78
2022/06/29 02:44:36;;;;;;;1.58;1.20;;;22.30;53.40;;;;;;4917026;29;20072;-78
2022/06/29 02:47:06;;;;;;;1.65;1.42;;;22.30;53.40;;;;;;4900210;29;20038;-78
2022/06/29 02:49:32;;;;;;;2.35;1.50;;;22.30;53.40;;;;;;4900805;29;20449;-78
2022/06/29 02:51:58;;;;;;;2.00;1.40;;;22.20;53.40;;;;;;4900303;29;20024;-79
2022/06/29 02:54:24;;;;;;;1.65;1.30;;;22.20;53.40;;;;;;4915921;29;20473;-78
2022/06/29 02:56:50;;;;;;;1.38;1.23;;;22.20;53.50;;;;;;4916647;29;20393;-78
2022/06/29 02:59:16;;;;;;;2.83;1.20;;;22.20;53.50;;;;;;4899853;29;20044;-79
2022/06/29 03:01:41;;;;;;;1.73;1.30;;;22.10;53.50;;;;;;4884701;29;20028;-77
2022/06/29 03:04:08;;;;;;;1.67;1.30;;;22.20;53.50;;;;;;4899943;29;20044;-79
2022/06/29 03:06:34;;;;;;;1.73;1.35;;;22.10;53.50;;;;;;4884252;29;20025;-78
2022/06/29 03:08:59;;;;;;;1.40;1.30;;;22.10;53.50;;;;;;4915450;29;20509;-78
2022/06/29 03:11:25;;;;;;;1.60;1.20;;;22.10;53.60;;;;;;4916726;29;20044;-79
2022/06/29 03:13:51;;;;;;;1.20;1.10;;;22.10;53.60;;;;;;4869055;29;20039;-79
2022/06/29 03:16:17;;;;;;;1.27;1.17;;;22.00;53.60;;;;;;4899738;29;20042;-79
2022/06/29 03:18:43;;;;;;;1.20;1.10;;;22.00;53.60;;;;;;4884314;29;20122;-78
2022/06/29 03:21:10;;;;;;;1.30;1.20;;;22.00;53.60;;;;;;4916828;29;20056;-78
2022/06/29 03:23:37;;;;;;;1.98;1.48;;;22.00;53.70;;;;;;4919899;29;20040;-79
2022/06/29 03:26:02;;;;;;;1.50;1.30;;;22.00;53.70;;;;;;4887929;29;20342;-78
2022/06/29 03:28:28;;;;;;;1.23;1.13;;;21.90;53.70;;;;;;4903935;29;20120;-78
2022/06/29 03:30:54;;;;;;;1.35;1.25;;;21.90;53.70;;;;;;4904068;29;20434;-77
2022/06/29 03:33:21;;;;;;;1.38;1.15;;;21.90;53.80;;;;;;4887939;29;20057;-78
2022/06/29 03:35:48;;;;;;;1.48;1.10;;;21.90;53.80;;;;;;4919208;29;20032;-79
2022/06/29 03:38:14;;;;;;;1.52;1.40;;;21.90;53.90;;;;;;4888082;29;20040;-77
2022/06/29 03:40:40;;;;;;;1.25;1.05;;;21.80;53.80;;;;;;4872447;29;20024;-79
2022/06/29 03:43:05;;;;;;;1.40;1.25;;;21.80;53.90;;;;;;4903727;29;20032;-78
2022/06/29 03:45:31;;;;;;;1.63;1.45;;;21.80;53.90;;;;;;4887957;29;20092;-79
2022/06/29 03:47:57;;;;;;;1.30;1.20;;;21.80;54.00;;;;;;4919346;29;20111;-78
2022/06/29 03:50:23;;;;;;;1.52;1.42;;;21.80;54.00;;;;;;4902905;29;20453;-78
2022/06/29 03:52:51;;;;;;;1.52;1.30;;;21.70;54.00;;;;;;4919160;29;20036;-79
2022/06/29 03:55:17;;;;;;;1.27;1.17;;;21.70;54.00;;;;;;4872566;29;20047;-78
2022/06/29 03:57:43;;;;;;;1.55;1.20;;;21.70;54.10;;;;;;4919872;29;20059;-79
2022/06/29 04:00:09;;;;;;;1.75;1.17;;;21.70;54.10;;;;;;4887332;29;20449;-77
2022/06/29 04:02:38;;;;;;;1.20;1.10;;;21.70;54.10;;;;;;4888622;29;20056;-78
2022/06/29 04:05:04;;;;;;;1.52;1.30;;;21.70;54.20;;;;;;4887942;29;20469;-78
2022/06/29 04:07:31;;;;;;;1.38;1.20;;;21.60;54.20;;;;;;4918444;29;20032;-78
2022/06/29 04:09:59;;;;;;;1.50;1.20;;;21.60;54.20;;;;;;4918425;29;20036;-79
2022/06/29 04:12:30;;;;;;;1.52;1.27;;;21.60;54.20;;;;;;4887829;29;20044;-80
2022/06/29 04:14:56;;;;;;;2.17;1.20;;;21.60;54.30;;;;;;4886832;29;20131;-80
2022/06/29 04:17:22;;;;;;;2.53;1.48;;;21.60;54.30;;;;;;4902673;29;20028;-80
2022/06/29 04:19:48;;;;;;;1.70;1.10;;;21.50;54.30;;;;;;4902561;29;20112;-79
2022/06/29 04:22:14;;;;;;;1.50;1.40;;;21.50;54.30;;;;;;4918028;29;20123;-78
2022/06/29 04:24:40;;;;;;;1.67;1.50;;;21.50;54.30;;;;;;4919811;29;20119;-79
2022/06/29 04:27:05;;;;;;;1.45;1.15;;;21.50;54.30;;;;;;4872219;29;20083;-78
2022/06/29 04:29:31;;;;;;;1.50;1.30;;;21.50;54.40;;;;;;4903343;29;20055;-78
2022/06/29 04:31:57;;;;;;;2.10;1.45;;;21.50;54.40;;;;;;4902781;29;20470;-78
2022/06/29 04:34:23;;;;;;;1.95;1.30;;;21.40;54.40;;;;;;4917607;29;20131;-79
2022/06/29 04:36:48;;;;;;;1.45;1.25;;;21.40;54.40;;;;;;4902554;29;20040;-78
2022/06/29 04:39:14;;;;;;;2.03;1.30;;;21.40;54.50;;;;;;4918156;29;20553;-81
2022/06/29 04:41:40;;;;;;;1.92;1.23;;;21.40;54.50;;;;;;4902300;29;20040;-77
2022/06/29 04:44:06;;;;;;;1.65;1.45;;;21.40;54.60;;;;;;4886472;29;20414;-78
2022/06/29 04:46:31;;;;;;;1.40;1.30;;;21.40;54.60;;;;;;4902502;29;20024;-77
2022/06/29 04:48:59;;;;;;;1.88;1.33;;;21.30;54.50;;;;;;4886504;29;20440;-81
2022/06/29 04:51:27;;;;;;;1.10;1.10;;;21.30;54.60;;;;;;4901955;29;20076;-80
2022/06/29 04:53:54;;;;;;;1.27;1.17;;;21.30;54.60;;;;;;4917903;29;20522;-77
2022/06/29 04:56:22;;;;;;;1.30;1.20;;;21.30;54.60;;;;;;4898677;29;20060;-79
2022/06/29 04:58:48;;;;;;;1.35;1.25;;;21.30;54.60;;;;;;4899730;29;20032;-79
2022/06/29 05:01:14;;;;;;;1.83;1.38;;;21.30;54.70;;;;;;4886034;29;20068;-79
2022/06/29 05:03:41;;;;;;;1.40;1.30;;;21.30;54.70;;;;;;4902133;29;20432;-79
2022/06/29 05:06:07;;;;;;;2.45;1.40;;;21.30;54.80;;;;;;4871014;29;20036;-77
2022/06/29 05:08:33;;;;;;;1.30;1.20;;;21.30;54.80;;;;;;4886323;29;20451;-79
2022/06/29 05:10:58;;;;;;;1.77;1.35;;;21.20;54.70;;;;;;4886502;29;20450;-78
2022/06/29 05:13:24;;;;;;;1.55;1.38;;;21.30;54.80;;;;;;4885710;29;20039;-81
2022/06/29 05:15:50;;;;;;;1.50;1.30;;;21.30;54.80;;;;;;4885948;29;20054;-78
2022/06/29 05:18:16;;;;;;;2.05;1.40;;;21.30;54.90;;;;;;4901370;29;20043;-78
2022/06/29 05:20:42;;;;;;;1.55;1.30;;;21.20;54.80;;;;;;4886150;29;20060;-79
2022/06/29 05:23:09;;;;;;;1.40;1.30;;;21.20;54.80;;;;;;4886354;29;20071;-79
2022/06/29 05:25:35;;;;;;;1.35;1.25;;;21.20;54.90;;;;;;4886313;29;20050;-79
2022/06/29 05:28:01;;;;;;;1.40;1.30;;;21.20;54.90;;;;;;4886336;29;20039;-78
2022/06/29 05:30:27;;;;;;;1.60;1.23;;;21.20;54.90;;;;;;4901285;29;20028;-79
2022/06/29 05:32:53;;;;;;;1.42;1.25;;;21.20;54.90;;;;;;4901629;29;20548;-79
2022/06/29 05:35:19;;;;;;;1.42;1.20;;;21.20;54.90;;;;;;4901027;29;20032;-79
2022/06/29 05:37:45;;;;;;;1.45;1.30;;;21.20;55.00;;;;;;4917905;29;20043;-80
2022/06/29 05:40:10;;;;;;;1.50;1.40;;;21.20;55.00;;;;;;4886440;29;20055;-81
2022/06/29 05:42:36;;;;;;;1.40;1.30;;;21.20;55.00;;;;;;4885662;29;20231;-80
2022/06/29 05:45:03;;;;;;;1.50;1.40;;;21.20;55.00;;;;;;4900297;29;20028;-80
2022/06/29 05:47:29;;;;;;;1.40;1.30;;;21.20;55.00;;;;;;4901424;29;20032;-79
2022/06/29 05:50:00;;;;;;;1.48;1.38;;;21.20;55.00;;;;;;4870258;29;20087;-80
2022/06/29 05:52:26;;;;;;;1.48;1.38;;;21.20;55.00;;;;;;4901911;29;20036;-82
2022/06/29 05:54:52;;;;;;;1.30;1.20;;;21.20;55.10;;;;;;4900873;29;20032;-80
2022/06/29 05:57:19;;;;;;;1.50;1.27;;;21.20;55.10;;;;;;4886051;29;20036;-79
2022/06/29 05:59:46;;;;;;;1.30;1.20;;;21.20;55.10;;;;;;4885593;29;20048;-80
2022/06/29 06:02:12;;;;;;;1.55;1.35;;;21.20;55.10;;;;;;4885745;29;20036;-79
2022/06/29 06:04:38;;;;;;;1.60;1.25;;;21.20;55.10;;;;;;4901070;29;20038;-78
2022/06/29 06:07:04;;;;;;;1.58;1.48;;;21.20;55.20;;;;;;4916469;29;20052;-80
2022/06/29 06:09:30;;;;;;;1.55;1.45;;;21.20;55.20;;;;;;4885327;29;20193;-80
2022/06/29 06:11:56;;;;;;;1.77;1.48;;;21.20;55.20;;;;;;4870302;29;20130;-79
2022/06/29 06:14:22;;;;;;;2.67;1.58;;;21.20;55.20;;;;;;4885264;29;20123;-80
2022/06/29 06:16:48;;;;;;;1.40;1.30;;;21.30;55.30;;;;;;4916685;29;20044;-79
2022/06/29 06:19:13;;;;;;;2.35;1.60;;;21.30;55.30;;;;;;4869495;29;20035;-78
2022/06/29 06:21:39;;;;;;;2.90;1.58;;;21.20;55.30;;;;;;4901246;29;20391;-79
2022/06/29 06:24:05;;;;;;;1.75;1.42;;;21.20;55.20;;;;;;4900721;29;20401;-79
2022/06/29 06:26:31;;;;;;;1.52;1.42;;;21.30;55.30;;;;;;4900232;29;20044;-79
2022/06/29 06:28:58;;;;;;;1.88;1.50;;;21.30;55.30;;;;;;4884666;29;20538;-80
2022/06/29 06:31:27;;;;;;;1.42;1.30;;;21.30;55.40;;;;;;4900250;29;20036;-78
2022/06/29 06:33:53;;;;;;;2.45;1.73;;;21.30;55.40;;;;;;4901176;29;20342;-79
2022/06/29 06:36:19;;;;;;;1.73;1.60;;;21.30;55.40;;;;;;4900542;29;20040;-79
2022/06/29 06:38:45;;;;;;;1.52;1.40;;;21.30;55.40;;;;;;4884480;29;20036;-79
2022/06/29 06:41:22;;;;;;;1.38;1.27;;;21.30;55.40;;;;;;4884799;29;20032;-81
2022/06/29 06:43:49;;;;;;;1.90;1.70;;;21.30;56.10;;;;;;4901138;29;20043;-82
2022/06/29 06:46:15;;;;;;;1.95;1.50;;;21.30;55.40;;;;;;4900657;29;20036;-81
2022/06/29 06:48:42;;;;;;;1.73;1.48;;;21.30;55.50;;;;;;4884743;29;20036;-79
2022/06/29 06:51:08;;;;;;;2.08;1.60;;;21.30;55.40;;;;;;4884973;29;20501;-79
2022/06/29 06:53:34;;;;;;;1.52;1.40;;;21.40;55.50;;;;;;4884561;29;20033;-78
2022/06/29 06:55:59;;;;;;;1.40;1.30;;;21.40;55.50;;;;;;4916947;29;20040;-81
2022/06/29 06:58:25;;;;;;;1.98;1.60;;;21.40;55.50;;;;;;4900223;29;20122;-80
2022/06/29 07:00:51;;;;;;;2.05;1.50;;;21.40;55.60;;;;;;4900016;29;20111;-81
2022/06/29 07:03:17;;;;;;;1.55;1.45;;;21.40;55.60;;;;;;4869173;29;20036;-81
2022/06/29 07:05:42;;;;;;;1.65;1.50;;;21.40;55.60;;;;;;4870218;29;20043;-80
2022/06/29 07:08:08;;;;;;;2.00;1.60;;;21.50;55.70;;;;;;4884742;29;20032;-81
2022/06/29 07:10:34;;;;;;;1.80;1.70;;;21.50;55.70;;;;;;4900689;29;20112;-81
2022/06/29 07:13:00;;;;;;;2.10;1.60;;;21.50;55.70;;;;;;4885203;29;20040;-80
2022/06/29 07:15:26;;;;;;;2.08;1.50;;;21.50;55.70;;;;;;4884218;29;20504;-80
2022/06/29 07:17:51;;;;;;;1.73;1.55;;;21.50;55.70;;;;;;4869188;29;20044;-80
2022/06/29 07:20:17;;;;;;;2.30;1.60;;;21.60;55.70;;;;;;4869197;29;20056;-80
2022/06/29 07:22:44;;;;;;;2.53;1.40;;;21.60;55.80;;;;;;4885181;29;20052;-82
2022/06/29 07:25:10;;;;;;;1.45;1.33;;;21.60;55.70;;;;;;4884521;29;20036;-82
2022/06/29 07:27:35;;;;;;;2.25;1.67;;;21.60;55.80;;;;;;4899837;29;20118;-82
2022/06/29 07:30:01;;;;;;;1.92;1.40;;;21.60;55.70;;;;;;4884738;29;20040;-81
2022/06/29 07:32:27;;;;;;;2.58;1.75;;;21.70;55.70;;;;;;4884989;29;20358;-80
2022/06/29 07:34:53;;;;;;;1.50;1.40;;;21.70;55.80;;;;;;4869266;29;20072;-81
2022/06/29 07:37:18;;;;;;;2.35;1.70;;;21.70;55.70;;;;;;4884379;29;20172;-81
2022/06/29 07:39:44;;;;;;;1.88;1.58;;;21.80;55.70;;;;;;4915731;29;20512;-81
2022/06/29 07:42:10;;;;;;;1.98;1.50;;;21.80;55.70;;;;;;4916485;29;20047;-81
2022/06/29 07:44:36;;;;;;;1.73;1.35;;;21.80;55.70;;;;;;4916273;29;20043;-82
2022/06/29 07:47:01;;;;;;;2.58;1.58;;;21.90;55.70;;;;;;4899691;29;20080;-81
2022/06/29 07:49:27;;;;;;;1.58;1.40;;;21.90;55.60;;;;;;4901779;29;20032;-82
2022/06/29 07:51:53;;;;;;;1.48;1.23;;;22.00;55.60;;;;;;4902010;29;20115;-81
2022/06/29 07:54:22;;;;;;;1.73;1.50;;;22.10;55.60;;;;;;4884910;29;20051;-81
2022/06/29 07:56:48;;;;;;;2.55;1.60;;;22.10;55.50;;;;;;4900843;29;20043;-81
2022/06/29 07:59:14;;;;;;;2.97;1.55;;;22.20;55.40;;;;;;4901327;29;20032;-81
2022/06/29 08:01:39;;;;;;;2.13;1.55;;;22.20;55.40;;;;;;4901657;29;20028;-81
2022/06/29 08:04:05;;;;;;;2.05;1.48;;;22.30;55.40;;;;;;4899562;29;20642;-81
2022/06/29 08:06:31;;;;;;;1.70;1.40;;;22.40;55.30;;;;;;4884496;29;20028;-81
2022/06/29 08:08:58;;;;;;;1.63;1.45;;;22.40;55.20;;;;;;4901306;29;20473;-80
2022/06/29 08:11:24;;;;;;;1.63;1.35;;;22.50;55.20;;;;;;4871763;29;20024;-80
2022/06/29 08:13:50;;;;;;;2.03;1.40;;;22.60;55.20;;;;;;4918519;29;20028;-82
2022/06/29 08:16:16;;;;;;;1.95;1.30;;;22.70;55.10;;;;;;4902971;29;20032;-81
2022/06/29 08:18:42;;;;;;;1.48;1.38;;;22.70;55.00;;;;;;4887765;29;20048;-82
2022/06/29 08:21:07;;;;;;;1.95;1.40;;;22.90;55.10;;;;;;4871738;29;20052;-81
2022/06/29 08:23:34;;;;;;;1.65;1.33;;;22.90;55.00;;;;;;4871757;29;20036;-80
2022/06/29 08:26:00;;;;;;;2.60;1.58;;;23.00;54.90;;;;;;4871994;29;20472;-77
2022/06/29 08:28:27;;;;;;;2.25;1.40;;;23.10;54.90;;;;;;4887868;29;20100;-81
2022/06/29 08:30:54;;;;;;;2.20;1.30;;;23.20;54.90;;;;;;4918788;29;20438;-80
2022/06/29 08:33:22;;;;;;;2.28;1.30;;;23.20;54.80;;;;;;4902914;29;20031;-80
2022/06/29 08:35:48;;;;;;;1.38;1.20;;;23.40;54.80;;;;;;4919666;29;20111;-80
2022/06/29 08:38:15;;;;;;;1.55;1.23;;;23.40;54.70;;;;;;4919848;29;20032;-81
2022/06/29 08:40:46;;;;;;;1.30;1.20;;;23.50;54.70;;;;;;4919202;29;20111;-80
2022/06/29 08:43:15;;;;;;;1.63;1.20;;;23.60;54.70;;;;;;4919365;29;20039;-81
2022/06/29 08:45:52;;;;;;;2.28;1.42;;;23.60;54.60;;;;;;4886819;29;20466;-80
2022/06/29 08:48:18;;;;;;;1.55;1.20;;;23.80;54.70;;;;;;4902593;29;20438;-81
2022/06/29 08:50:50;;;;;;;2.17;1.20;;;23.80;54.60;;;;;;4902684;29;20036;-81
2022/06/29 08:53:16;;;;;;;2.78;1.40;;;24.00;54.70;;;;;;4902780;29;20126;-79
2022/06/29 08:55:48;;;;;;;1.92;1.20;;;24.00;54.60;;;;;;4901866;29;20041;-79
2022/06/29 08:58:17;;;;;;;1.48;1.30;;;24.20;54.70;;;;;;4917922;29;20036;-80
2022/06/29 09:00:43;;;;;;;1.55;1.25;;;24.20;54.60;;;;;;4886742;29;20132;-80
2022/06/29 09:03:09;;;;;;;1.33;1.10;;;24.30;54.60;;;;;;4886359;29;20067;-80
2022/06/29 09:05:34;;;;;;;1.83;1.20;;;24.40;54.60;;;;;;4902079;29;20521;-80
2022/06/29 09:08:00;;;;;;;1.20;1.10;;;24.50;54.50;;;;;;4871691;29;20140;-80
2022/06/29 09:10:29;;;;;;;1.80;1.10;;;24.60;54.50;;;;;;4886647;29;20063;-82
2022/06/29 09:12:58;;;;;;;1.08;1.00;;;24.70;54.50;;;;;;4901937;29;20060;-81
2022/06/29 09:15:40;;;;;;;1.27;1.13;;;24.80;54.50;;;;;;4902472;29;20044;-81
2022/06/29 09:18:31;;;;;;;1.45;1.10;;;24.90;54.60;;;;;;4902078;29;20043;-82
2022/06/29 09:21:03;;;;;;;1.17;1.08;;;25.00;54.50;;;;;;4885440;29;20052;-80
2022/06/29 09:23:30;;;;;;;1.20;1.10;;;25.10;54.40;;;;;;4917509;29;20063;-80
2022/06/29 09:25:56;;;;;;;1.75;1.30;;;25.20;54.40;;;;;;4901741;29;20032;-80
2022/06/29 09:28:31;;;;;;;2.15;1.40;;;25.30;54.40;;;;;;4902097;29;20040;-81
2022/06/29 09:30:58;;;;;;;1.50;1.17;;;25.40;54.50;;;;;;4901599;29;20080;-81
2022/06/29 09:33:30;;;;;;;1.40;1.13;;;25.50;54.50;;;;;;4885976;29;20029;-81
2022/06/29 09:36:09;;;;;;;1.33;1.08;;;25.60;54.60;;;;;;4917281;29;20067;-81
2022/06/29 09:38:36;;;;;;;1.13;1.00;;;25.70;54.70;;;;;;4901404;29;20036;-81
2022/06/29 09:41:09;;;;;;;1.40;1.10;;;25.80;54.60;;;;;;4917031;29;20548;-81
2022/06/29 09:43:38;;;;;;;1.20;1.10;;;25.90;54.60;;;;;;4917889;29;20036;-81
2022/06/29 09:46:04;;;;;;;1.60;1.30;;;26.00;54.50;;;;;;4917044;29;20032;-80
2022/06/29 09:48:32;;;;;;;1.02;1.00;;;26.10;54.40;;;;;;4901198;29;20043;-82
2022/06/29 09:50:59;;;;;;;1.33;1.10;;;26.20;54.40;;;;;;4900792;29;20032;-80
2022/06/29 09:53:37;;;;;;;1.23;1.00;;;26.30;54.40;;;;;;4885529;29;20116;-81
2022/06/29 09:56:05;;;;;;;1.05;0.90;;;26.50;54.50;;;;;;4885380;29;20047;-81
2022/06/29 09:58:49;;;;;;;1.10;1.00;;;26.50;54.30;;;;;;4901593;29;20040;-81
2022/06/29 10:04:01;;;;;;;1.13;1.00;;;26.70;54.20;;;;;;4888046;29;20036;-80
2022/06/29 10:06:28;;;;;;;1.70;0.90;;;26.80;54.10;;;;;;4885327;29;20448;-81
2022/06/29 10:08:55;;;;;;;1.38;1.10;;;26.90;54.10;;;;;;4885209;29;20039;-81
2022/06/29 10:15:07;;;;;;;1.20;1.00;;;27.20;54.00;;;;;;4917354;29;20488;-81
2022/06/29 10:17:49;;;;;;;0.90;0.90;;;27.30;53.80;;;;;;4900914;29;20032;-80
2022/06/29 10:20:41;;;;;;;2.20;1.20;;;27.40;53.60;;;;;;4913249;29;20060;-81
2022/06/29 10:23:07;;;;;;;0.93;0.90;;;27.40;53.60;;;;;;4913131;29;20104;-81
2022/06/29 10:25:33;;;;;;;1.20;1.10;;;27.60;53.40;;;;;;4881589;29;20084;-82
2022/06/29 10:28:08;;;;;;;1.35;1.00;;;27.60;54.00;;;;;;4881798;29;20032;-81
2022/06/29 10:30:34;;;;;;;1.00;0.90;;;27.70;53.30;;;;;;4913266;29;20060;-82
2022/06/29 10:33:28;;;;;;;1.17;0.93;;;27.80;53.30;;;;;;4898270;29;20024;-81
2022/06/29 10:36:07;;;;;;;1.08;1.00;;;27.90;53.30;;;;;;4897298;29;20044;-81
2022/06/29 10:38:58;;;;;;;1.05;0.93;;;28.00;53.30;;;;;;4913564;29;20044;-81
2022/06/29 10:45:14;;;;;;;1.42;0.82;;;28.10;53.20;;;;;;4855705;29;20427;-81
2022/06/29 10:47:45;;;;;;;1.20;1.10;;;28.20;53.60;;;;;;4790550;29;20039;-82
2022/06/29 10:50:25;;;;;;;1.10;1.00;;;28.30;53.20;;;;;;4816420;29;20037;-81
2022/06/29 10:53:02;;;;;;;0.82;0.82;;;28.30;53.10;;;;;;4868116;29;20075;-79
2022/06/29 10:55:29;;;;;;;1.05;0.90;;;28.40;53.10;;;;;;4881537;29;20067;-78
2022/06/29 10:57:56;;;;;;;1.60;1.05;;;28.40;53.00;;;;;;4881694;29;20423;-80
2022/06/29 11:00:31;;;;;;;1.15;0.90;;;28.50;53.00;;;;;;4898286;29;20461;-79
2022/06/29 11:02:57;;;;;;;1.30;0.80;;;28.50;53.00;;;;;;4881530;29;20037;-81
2022/06/29 11:05:23;;;;;;;1.13;1.00;;;28.60;52.90;;;;;;4882088;29;20417;-80
2022/06/29 11:13:23;;;;;;;1.73;0.82;;;28.80;52.70;;;;;;4895186;29;20040;-81
2022/06/29 11:15:54;;;;;;;0.85;0.85;;;28.90;52.70;;;;;;4881081;29;20044;-82
2022/06/29 11:18:22;;;;;;;1.13;1.02;;;28.90;52.60;;;;;;4896619;29;20029;-82
2022/06/29 11:20:50;;;;;;;0.90;0.90;;;29.00;52.60;;;;;;4894138;29;20088;-83
2022/06/29 11:23:29;;;;;;;1.38;1.02;;;29.00;52.50;;;;;;4900390;29;20036;-81
2022/06/29 11:25:56;;;;;;;0.90;0.90;;;29.10;52.50;;;;;;4915851;29;20040;-81
2022/06/29 11:28:30;;;;;;;0.95;0.90;;;29.10;52.40;;;;;;4899839;29;20160;-81
2022/06/29 11:31:03;;;;;;;;;;;29.20;52.40;;;;;;4900575;29;20044;-80
2022/06/29 11:33:33;;;;;;;0.95;0.90;;;29.30;52.60;;;;;;4916783;29;19911;-82
2022/06/29 11:36:06;;;;;;;1.33;0.95;;;29.30;52.40;;;;;;4900171;29;20108;-82
2022/06/29 11:38:40;;;;;;;1.02;0.90;;;29.30;52.40;;;;;;4900020;29;20127;-82
2022/06/29 11:41:25;;;;;;;0.82;0.82;;;29.30;52.20;;;;;;4900363;29;20059;-81
2022/06/29 11:44:05;;;;;;;2.35;1.00;;;29.30;52.20;;;;;;4887643;29;20042;-81
2022/06/29 11:46:37;;;;;;;1.30;1.00;;;29.40;52.20;;;;;;4919995;29;20036;-80
2022/06/29 11:52:02;;;;;;;1.33;0.90;;;29.40;52.10;;;;;;4919014;29;20039;-82
2022/06/29 11:54:38;;;;;;;1.38;1.00;;;29.40;52.10;;;;;;4903548;29;20381;-82
2022/06/29 11:57:08;;;;;;;0.88;0.88;;;29.50;52.20;;;;;;4920203;29;20072;-80
2022/06/29 11:59:35;;;;;;;0.98;0.80;;;29.50;52.20;;;;;;4903885;29;20028;-79
2022/06/29 12:02:01;;;;;;;0.90;0.90;;;29.50;52.30;;;;;;4903666;29;20028;-82
2022/06/29 12:04:32;;;;;;;1.10;1.00;;;29.50;52.30;;;;;;4903161;29;20036;-79
2022/06/29 12:07:07;;;;;;;1.20;1.10;;;29.50;52.40;;;;;;4919834;29;20028;-80
2022/06/29 12:09:33;;;;;;;0.88;0.88;;;29.60;52.60;;;;;;4903800;29;20111;-79
2022/06/29 12:11:59;;;;;;;1.75;1.00;;;29.60;52.60;;;;;;4903686;29;20032;-80
2022/06/29 12:14:26;;;;;;;1.13;1.00;;;29.60;52.50;;;;;;4887371;29;20044;-82
2022/06/29 12:16:51;;;;;;;1.15;0.98;;;29.60;52.50;;;;;;4887691;29;20119;-81
2022/06/29 12:19:17;;;;;;;1.10;1.00;;;29.60;52.50;;;;;;4903095;29;20496;-81
2022/06/29 12:21:44;;;;;;;0.90;0.85;;;29.60;52.70;;;;;;4903309;29;20037;-82
2022/06/29 12:24:09;;;;;;;0.80;0.80;;;29.70;52.70;;;;;;4887644;29;20123;-86
2022/06/29 12:26:35;;;;;;;3.53;1.15;;;29.70;52.70;;;;;;4902970;29;20446;-80
2022/06/29 12:29:01;;;;;;;0.95;0.90;;;29.70;52.80;;;;;;4887235;29;20091;-80
2022/06/29 12:31:27;;;;;;;1.00;0.90;;;29.80;52.90;;;;;;4903360;29;20027;-81
2022/06/29 12:33:53;;;;;;;1.52;0.90;;;29.80;52.80;;;;;;4887292;29;20351;-82
2022/06/29 12:36:18;;;;;;;2.67;1.00;;;29.80;52.80;;;;;;4887513;29;20465;-80
2022/06/29 12:38:44;;;;;;;0.98;0.85;;;29.80;52.70;;;;;;4886929;29;20393;-79
2022/06/29 12:41:10;;;;;;;1.27;1.00;;;29.80;52.60;;;;;;4887270;29;20031;-81
2022/06/29 12:43:36;;;;;;;1.50;1.08;;;29.80;52.70;;;;;;4902158;29;20028;-79
2022/06/29 12:46:01;;;;;;;1.10;1.02;;;29.90;52.70;;;;;;4886917;29;20613;-80
2022/06/29 12:48:27;;;;;;;1.02;0.95;;;29.90;52.60;;;;;;4902480;29;20129;-81
2022/06/29 12:50:54;;;;;;;0.80;0.80;;;29.90;52.60;;;;;;4902806;29;20039;-80
2022/06/29 12:53:19;;;;;;;1.10;1.00;;;29.90;52.50;;;;;;4886651;29;20184;-78
2022/06/29 12:55:45;;;;;;;0.70;0.70;;;29.90;52.50;;;;;;4902082;29;20524;-78
2022/06/29 12:58:11;;;;;;;0.75;0.75;;;30.00;52.60;;;;;;4886585;29;20091;-80
2022/06/29 13:00:37;;;;;;;0.90;0.80;;;30.00;52.60;;;;;;4870542;29;20127;-79
2022/06/29 13:03:03;;;;;;;1.25;0.95;;;30.00;52.50;;;;;;4918647;29;20036;-79
2022/06/29 13:05:29;;;;;;;1.10;1.00;;;30.00;52.40;;;;;;4901960;29;20028;-78
2022/06/29 13:07:54;;;;;;;1.48;1.10;;;30.10;52.40;;;;;;4886471;29;20040;-78
2022/06/29 13:10:20;;;;;;;1.10;1.00;;;30.10;52.20;;;;;;4886202;29;20033;-78